Time;durP1;ratioP1;P1;durP2;ratioP2;P2;SDS_P1;SDS_P2;PMS_P1;PMS_P2;Temp;Humidity;BMP_temperature;BMP_pressure;BME280_temperature;BME280_humidity;BME280_pressure;Samples;Min_cycle;Max_cycle;Signal;HPM_P1;HPM_P2
2022/11/19 00:02:19;;;;;;;2.05;1.95;;;7.00;99.90;;;;;;5118693;27;20863;-75
2022/11/19 00:04:47;;;;;;;2.20;2.10;;;6.90;99.90;;;;;;5129451;27;20559;-75
2022/11/19 00:07:16;;;;;;;2.20;2.10;;;6.90;99.90;;;;;;5129654;27;20226;-76
2022/11/19 00:09:43;;;;;;;1.92;1.83;;;6.90;99.90;;;;;;5119300;27;20759;-76
2022/11/19 00:14:55;;;;;;;2.17;2.08;;;6.90;99.90;;;;;;5124362;27;20225;-75
2022/11/19 00:17:23;;;;;;;2.20;2.10;;;6.90;99.90;;;;;;5127704;27;20227;-75
2022/11/19 00:19:51;;;;;;;2.10;2.00;;;6.90;99.90;;;;;;5131679;27;20200;-76
2022/11/19 00:22:20;;;;;;;2.20;2.10;;;6.80;99.90;;;;;;5121429;27;20228;-75
2022/11/19 00:24:48;;;;;;;2.75;2.65;;;6.90;99.90;;;;;;5148185;28;20188;-74
2022/11/19 00:27:15;;;;;;;2.30;2.20;;;6.80;99.90;;;;;;5132726;28;20220;-75
2022/11/19 00:29:42;;;;;;;1.77;1.77;;;6.80;99.90;;;;;;5126934;27;20652;-74
2022/11/19 00:32:09;;;;;;;2.03;1.92;;;6.80;99.90;;;;;;5132494;27;20212;-76
2022/11/19 00:34:36;;;;;;;1.85;1.83;;;6.80;99.90;;;;;;5124699;28;20226;-75
2022/11/19 00:37:04;;;;;;;2.05;1.95;;;6.80;99.90;;;;;;5128035;27;20219;-75
2022/11/19 00:39:33;;;;;;;2.00;1.90;;;6.80;99.90;;;;;;5123079;27;20334;-75
2022/11/19 00:42:01;;;;;;;2.88;2.67;;;6.90;99.90;;;;;;5125892;27;20224;-76
2022/11/19 00:44:28;;;;;;;2.30;2.20;;;6.90;99.90;;;;;;5124924;28;20219;-76
2022/11/19 00:46:55;;;;;;;2.08;1.98;;;7.00;99.90;;;;;;5130252;27;20216;-75
2022/11/19 00:49:22;;;;;;;2.00;1.90;;;7.00;99.90;;;;;;5128258;28;20570;-76
2022/11/19 00:51:50;;;;;;;2.00;1.90;;;7.00;99.90;;;;;;5121972;27;20203;-76
2022/11/19 00:54:18;;;;;;;2.10;2.00;;;7.00;99.90;;;;;;5129341;28;20228;-77
2022/11/19 00:56:46;;;;;;;2.28;2.17;;;7.00;99.90;;;;;;5130732;27;20227;-76
2022/11/19 00:59:14;;;;;;;2.30;2.20;;;7.00;99.90;;;;;;5125894;27;20200;-76
2022/11/19 01:01:41;;;;;;;2.03;1.92;;;7.00;99.90;;;;;;5129094;27;20402;-76
2022/11/19 01:04:09;;;;;;;1.90;1.80;;;7.00;99.90;;;;;;5124033;27;20204;-76
2022/11/19 01:06:36;;;;;;;1.88;1.80;;;7.00;99.90;;;;;;5128296;27;20188;-76
2022/11/19 01:09:04;;;;;;;2.10;2.00;;;7.00;99.90;;;;;;5125784;28;20204;-75
2022/11/19 01:11:33;;;;;;;2.03;1.92;;;6.90;99.90;;;;;;5125457;27;20676;-75
2022/11/19 01:14:02;;;;;;;2.15;2.05;;;6.90;99.90;;;;;;5128985;27;20228;-74
2022/11/19 01:16:32;;;;;;;2.22;2.13;;;6.80;99.90;;;;;;5127910;27;20197;-75
2022/11/19 01:19:00;;;;;;;2.30;2.10;;;6.80;99.90;;;;;;5126901;28;20257;-75
2022/11/19 01:21:30;;;;;;;2.08;1.98;;;6.80;99.90;;;;;;5128900;27;20200;-75
2022/11/19 01:23:58;;;;;;;2.15;2.05;;;6.70;99.90;;;;;;5116312;27;20618;-75
2022/11/19 01:26:26;;;;;;;2.00;1.90;;;6.70;99.90;;;;;;5128267;27;20199;-75
2022/11/19 01:28:53;;;;;;;2.15;2.00;;;6.70;99.90;;;;;;5138952;27;20235;-75
2022/11/19 01:31:24;;;;;;;1.90;1.80;;;6.70;99.90;;;;;;5131792;27;20241;-75
2022/11/19 01:36:31;;;;;;;2.20;2.10;;;6.70;99.90;;;;;;5099182;28;20201;-80
2022/11/19 01:39:00;;;;;;;2.20;2.10;;;6.70;99.90;;;;;;5085455;28;20198;-77
2022/11/19 01:41:29;;;;;;;2.15;2.05;;;6.60;99.90;;;;;;5087809;28;20193;-73
2022/11/19 01:43:59;;;;;;;2.10;2.00;;;6.60;99.90;;;;;;5084052;28;20221;-76
2022/11/19 01:46:30;;;;;;;2.08;1.98;;;6.60;99.90;;;;;;5070799;28;20202;-76
2022/11/19 01:49:01;;;;;;;2.30;2.20;;;6.60;99.90;;;;;;5036558;28;20214;-75
2022/11/19 01:51:33;;;;;;;1.90;1.80;;;6.60;99.90;;;;;;5053364;28;20207;-81
2022/11/19 01:54:05;;;;;;;2.10;2.00;;;6.60;99.90;;;;;;5054743;28;20304;-74
2022/11/19 01:56:33;;;;;;;2.10;2.00;;;6.60;99.90;;;;;;5067379;28;20199;-77
2022/11/19 01:59:04;;;;;;;2.40;2.30;;;6.60;99.90;;;;;;5048679;28;20225;-81
2022/11/19 02:01:34;;;;;;;2.22;2.13;;;6.60;99.90;;;;;;5031601;28;20211;-76
2022/11/19 02:04:04;;;;;;;2.30;2.20;;;6.60;99.90;;;;;;5034475;28;20226;-74
2022/11/19 02:06:33;;;;;;;2.53;2.42;;;6.60;99.90;;;;;;5050127;28;20203;-76
2022/11/19 02:09:01;;;;;;;2.03;1.92;;;6.60;99.90;;;;;;5067280;28;20205;-83
2022/11/19 02:12:07;;;;;;;2.00;1.90;;;6.50;99.90;;;;;;5068935;28;20201;-77
2022/11/19 02:15:10;;;;;;;2.08;1.98;;;6.50;99.90;;;;;;5053740;28;20226;-75
2022/11/19 02:18:05;;;;;;;2.13;2.03;;;6.50;99.90;;;;;;5064148;28;20217;-75
2022/11/19 02:20:45;;;;;;;2.08;1.98;;;6.50;99.90;;;;;;5068811;28;20190;-74
2022/11/19 02:23:48;;;;;;;1.95;1.90;;;6.50;99.90;;;;;;5065926;28;20245;-76
2022/11/19 02:27:06;;;;;;;2.15;2.05;;;6.50;99.90;;;;;;5066790;28;20651;-74
2022/11/19 02:30:06;;;;;;;1.95;1.90;;;6.50;99.90;;;;;;5070440;28;20563;-77
2022/11/19 02:32:37;;;;;;;2.08;1.98;;;6.50;99.90;;;;;;5083438;28;20221;-77
2022/11/19 02:35:18;;;;;;;2.00;1.90;;;6.50;99.90;;;;;;5068149;28;20217;-76
2022/11/19 02:37:49;;;;;;;2.00;1.90;;;6.50;99.90;;;;;;5085460;28;20228;-74
2022/11/19 02:40:22;;;;;;;1.88;1.80;;;6.50;99.90;;;;;;5070883;28;20586;-74
2022/11/19 02:42:57;;;;;;;2.17;2.05;;;6.40;99.90;;;;;;5050972;28;20214;-80
2022/11/19 02:45:29;;;;;;;2.00;1.90;;;6.40;99.90;;;;;;5071623;28;20198;-76
2022/11/19 02:48:01;;;;;;;2.00;1.90;;;6.40;99.90;;;;;;5072384;28;20214;-80
2022/11/19 02:50:34;;;;;;;1.98;1.88;;;6.40;99.90;;;;;;5075306;28;20194;-80
2022/11/19 02:53:03;;;;;;;1.95;1.85;;;6.40;99.90;;;;;;5052969;28;20674;-74
2022/11/19 02:55:31;;;;;;;2.40;2.30;;;6.30;99.90;;;;;;5063600;28;20230;-78
2022/11/19 02:58:05;;;;;;;1.58;1.58;;;6.40;99.90;;;;;;5065155;28;20237;-80
2022/11/19 03:06:16;;;;;;;2.10;2.00;;;6.30;99.90;;;;;;5069703;28;20681;-76
2022/11/19 03:08:44;;;;;;;1.77;1.77;;;6.30;99.90;;;;;;5066827;28;20214;-74
2022/11/19 03:11:20;;;;;;;1.90;1.90;;;6.30;99.90;;;;;;5069949;28;20698;-78
2022/11/19 03:16:48;;;;;;;2.20;2.10;;;6.20;99.90;;;;;;5067225;28;20188;-75
2022/11/19 03:19:33;;;;;;;1.90;1.83;;;6.10;99.90;;;;;;5065775;28;20202;-74
2022/11/19 03:22:06;;;;;;;1.92;1.88;;;6.10;99.90;;;;;;5069704;28;20225;-78
2022/11/19 03:24:37;;;;;;;2.10;2.00;;;6.00;99.90;;;;;;5067291;28;20206;-75
2022/11/19 03:27:11;;;;;;;1.83;1.83;;;6.00;99.90;;;;;;5062864;28;20218;-79
2022/11/19 03:29:43;;;;;;;2.13;2.03;;;6.00;99.90;;;;;;5067565;28;20203;-80
2022/11/19 03:32:17;;;;;;;1.85;1.80;;;6.00;99.90;;;;;;5068421;28;20589;-76
2022/11/19 03:34:47;;;;;;;2.03;1.92;;;6.00;99.90;;;;;;5070554;28;20243;-81
2022/11/19 03:37:17;;;;;;;2.42;2.33;;;6.00;99.90;;;;;;5067744;28;20222;-77
2022/11/19 03:39:47;;;;;;;2.35;2.25;;;6.00;99.90;;;;;;5068091;28;20194;-76
2022/11/19 03:42:16;;;;;;;2.30;2.20;;;6.10;99.90;;;;;;5066644;28;20219;-78
2022/11/19 03:44:48;;;;;;;2.38;2.28;;;6.10;99.90;;;;;;5049837;28;20187;-78
2022/11/19 03:47:20;;;;;;;2.15;2.05;;;6.10;99.90;;;;;;5067028;28;20222;-79
2022/11/19 03:49:53;;;;;;;1.98;1.88;;;6.10;99.90;;;;;;5051729;28;20195;-80
2022/11/19 03:52:21;;;;;;;2.40;2.30;;;6.10;99.90;;;;;;5062247;28;20218;-77
2022/11/19 03:54:49;;;;;;;2.53;2.42;;;6.10;99.90;;;;;;5057418;28;20222;-80
2022/11/19 03:57:19;;;;;;;2.33;2.22;;;6.10;99.90;;;;;;5069107;28;20897;-77
2022/11/19 03:59:47;;;;;;;2.20;2.10;;;6.10;99.90;;;;;;5073661;28;20264;-79
2022/11/19 04:02:15;;;;;;;2.65;2.55;;;6.10;99.90;;;;;;5086805;28;20225;-78
2022/11/19 04:04:44;;;;;;;1.90;1.80;;;6.00;99.90;;;;;;5066815;28;20186;-75
2022/11/19 04:07:15;;;;;;;2.47;2.38;;;6.00;99.90;;;;;;5061439;28;20218;-76
2022/11/19 04:09:42;;;;;;;2.30;2.20;;;6.00;99.90;;;;;;5068046;28;20682;-75
2022/11/19 04:12:16;;;;;;;2.20;2.10;;;5.90;99.90;;;;;;5066093;28;20598;-76
2022/11/19 04:14:43;;;;;;;2.25;2.15;;;5.90;99.90;;;;;;5067532;28;20213;-76
2022/11/19 04:17:11;;;;;;;2.00;1.90;;;5.90;99.90;;;;;;5050814;28;20214;-75
2022/11/19 04:19:38;;;;;;;2.20;2.10;;;5.90;99.90;;;;;;5070176;28;20202;-76
2022/11/19 04:22:07;;;;;;;2.10;2.00;;;5.90;99.90;;;;;;5066866;28;20639;-81
2022/11/19 04:24:35;;;;;;;2.17;2.08;;;5.90;99.90;;;;;;5049120;28;20193;-77
2022/11/19 04:27:02;;;;;;;2.00;1.90;;;5.90;99.90;;;;;;5064993;28;20214;-77
2022/11/19 04:29:30;;;;;;;2.10;2.00;;;5.90;99.90;;;;;;5065823;28;20197;-75
2022/11/19 04:31:57;;;;;;;1.92;1.92;;;5.80;99.90;;;;;;5069553;28;20222;-77
2022/11/19 04:34:24;;;;;;;2.08;1.98;;;5.80;99.90;;;;;;5063271;28;20222;-80
2022/11/19 04:36:51;;;;;;;1.90;1.90;;;5.80;99.90;;;;;;5064140;28;20694;-77
2022/11/19 04:39:20;;;;;;;1.85;1.85;;;5.70;99.90;;;;;;5069107;28;20204;-75
2022/11/19 04:41:47;;;;;;;2.58;2.38;;;5.70;99.90;;;;;;5066941;28;20209;-73
2022/11/19 04:44:14;;;;;;;2.30;2.20;;;5.80;99.90;;;;;;5067674;28;20218;-73
2022/11/19 04:46:41;;;;;;;2.22;2.13;;;5.70;99.90;;;;;;5065441;28;20220;-73
2022/11/19 04:49:10;;;;;;;2.17;2.08;;;5.70;99.90;;;;;;5068592;28;20187;-74
2022/11/19 04:51:37;;;;;;;2.00;1.90;;;5.70;99.90;;;;;;5068394;28;20206;-74
2022/11/19 04:54:07;;;;;;;2.10;2.00;;;5.70;99.90;;;;;;5066716;28;20217;-73
2022/11/19 04:56:36;;;;;;;2.35;2.25;;;5.70;99.90;;;;;;5066397;28;20629;-73
2022/11/19 04:59:03;;;;;;;2.28;2.17;;;5.70;99.90;;;;;;5064798;28;20198;-73
2022/11/19 05:01:31;;;;;;;2.20;2.10;;;5.60;99.90;;;;;;5064596;28;20205;-73
2022/11/19 05:03:58;;;;;;;1.95;1.85;;;5.60;99.90;;;;;;5071773;28;20235;-75
2022/11/19 05:06:27;;;;;;;2.15;2.05;;;5.50;99.90;;;;;;5070617;28;20276;-75
2022/11/19 05:08:54;;;;;;;2.20;2.10;;;5.50;99.90;;;;;;5052607;28;20210;-73
2022/11/19 05:11:21;;;;;;;2.00;2.00;;;5.40;99.90;;;;;;5065563;28;20655;-73
2022/11/19 05:13:50;;;;;;;2.55;2.35;;;5.40;99.90;;;;;;5078087;28;20230;-74
2022/11/19 05:16:18;;;;;;;2.20;2.10;;;5.40;99.90;;;;;;5068898;28;20218;-73
2022/11/19 05:18:47;;;;;;;2.00;1.90;;;5.40;99.90;;;;;;5067684;28;20761;-73
2022/11/19 05:21:15;;;;;;;2.10;2.00;;;5.40;99.90;;;;;;5087448;28;20220;-73
2022/11/19 05:23:42;;;;;;;2.10;2.00;;;5.40;99.90;;;;;;5068813;28;20229;-73
2022/11/19 05:26:10;;;;;;;2.28;2.17;;;5.40;99.90;;;;;;5070509;28;20198;-73
2022/11/19 05:28:37;;;;;;;1.92;1.83;;;5.40;99.90;;;;;;5067974;28;20218;-74
2022/11/19 05:31:07;;;;;;;2.30;2.20;;;5.40;99.90;;;;;;5071769;28;20210;-73
2022/11/19 05:33:34;;;;;;;2.30;2.20;;;5.40;99.90;;;;;;5069153;28;20715;-74
2022/11/19 05:36:01;;;;;;;1.92;1.92;;;5.40;99.90;;;;;;5045420;28;20218;-73
2022/11/19 05:38:28;;;;;;;2.10;2.00;;;5.40;99.90;;;;;;5064777;28;20227;-75
2022/11/19 05:40:56;;;;;;;2.05;1.95;;;5.30;99.90;;;;;;5070445;28;20208;-73
2022/11/19 05:43:23;;;;;;;2.30;2.20;;;5.30;99.90;;;;;;5064089;28;20226;-75
2022/11/19 05:45:51;;;;;;;2.30;2.20;;;5.30;99.90;;;;;;5068722;28;20247;-73
2022/11/19 05:48:20;;;;;;;2.15;2.05;;;5.30;99.90;;;;;;5065786;28;20222;-73
2022/11/19 05:50:47;;;;;;;2.30;2.20;;;5.30;99.90;;;;;;5070226;28;20198;-75
2022/11/19 05:53:14;;;;;;;2.25;2.15;;;5.30;99.90;;;;;;5070055;28;22205;-73
2022/11/19 05:55:41;;;;;;;2.35;2.20;;;5.30;99.90;;;;;;5066295;28;20221;-73
2022/11/19 05:58:09;;;;;;;2.50;2.40;;;5.30;99.90;;;;;;5069246;28;20229;-76
2022/11/19 06:00:36;;;;;;;2.15;2.05;;;5.20;99.90;;;;;;5066317;28;20198;-74
2022/11/19 06:03:04;;;;;;;2.25;2.15;;;5.20;99.90;;;;;;5069887;28;20217;-73
2022/11/19 06:05:32;;;;;;;2.00;1.90;;;5.20;99.90;;;;;;5067122;28;20205;-74
2022/11/19 06:08:00;;;;;;;2.60;2.50;;;5.20;99.90;;;;;;5064718;28;20225;-74
2022/11/19 06:10:27;;;;;;;2.67;2.58;;;5.20;99.90;;;;;;5069647;28;20277;-74
2022/11/19 06:12:54;;;;;;;2.50;2.40;;;5.30;99.90;;;;;;5065696;28;20699;-74
2022/11/19 06:15:21;;;;;;;2.60;2.50;;;5.20;99.90;;;;;;5069848;28;20652;-77
2022/11/19 06:17:49;;;;;;;2.80;2.70;;;5.30;99.90;;;;;;5068636;28;20600;-73
2022/11/19 06:20:17;;;;;;;2.45;2.35;;;5.20;99.90;;;;;;5069107;28;20199;-73
2022/11/19 06:22:46;;;;;;;2.67;2.58;;;5.30;99.90;;;;;;5065089;28;20218;-74
2022/11/19 06:25:14;;;;;;;2.38;2.28;;;5.30;99.90;;;;;;5074621;28;20198;-74
2022/11/19 06:27:41;;;;;;;2.53;2.42;;;5.30;99.90;;;;;;5072576;28;20226;-74
2022/11/19 06:30:09;;;;;;;2.42;2.33;;;5.30;99.90;;;;;;5070011;28;20206;-74
2022/11/19 06:32:37;;;;;;;2.60;2.50;;;5.20;99.90;;;;;;5069040;28;20241;-73
2022/11/19 06:35:05;;;;;;;2.60;2.50;;;5.30;99.90;;;;;;5069117;28;20304;-74
2022/11/19 06:37:32;;;;;;;2.50;2.40;;;5.30;99.90;;;;;;5066384;28;20221;-76
2022/11/19 06:40:01;;;;;;;2.45;2.35;;;5.30;99.90;;;;;;5065292;28;20605;-73
2022/11/19 06:42:37;;;;;;;2.47;2.38;;;5.30;99.90;;;;;;5063982;28;20222;-77
2022/11/19 06:45:06;;;;;;;2.30;2.20;;;5.30;99.90;;;;;;5064367;28;20190;-73
2022/11/19 06:47:33;;;;;;;2.42;2.33;;;5.30;99.90;;;;;;5064235;28;20218;-74
2022/11/19 06:50:01;;;;;;;2.85;2.60;;;5.30;99.90;;;;;;5069014;28;20198;-72
2022/11/19 06:52:28;;;;;;;2.30;2.20;;;5.30;99.90;;;;;;5062225;28;20218;-72
2022/11/19 06:54:55;;;;;;;2.30;2.20;;;5.20;99.90;;;;;;5052160;28;20623;-73
2022/11/19 06:57:24;;;;;;;2.20;2.10;;;5.30;99.90;;;;;;5067363;28;20236;-73
2022/11/19 06:59:52;;;;;;;3.30;3.10;;;5.30;99.90;;;;;;5068986;28;20654;-72
2022/11/19 07:02:19;;;;;;;2.30;2.20;;;5.30;99.90;;;;;;5068754;28;20786;-72
2022/11/19 07:04:48;;;;;;;2.67;2.55;;;5.40;99.90;;;;;;5054620;28;20198;-74
2022/11/19 07:07:15;;;;;;;2.20;2.10;;;5.40;99.90;;;;;;5065424;28;20225;-72
2022/11/19 07:09:43;;;;;;;2.38;2.28;;;5.40;99.90;;;;;;5065867;28;20201;-74
2022/11/19 07:12:10;;;;;;;2.38;2.28;;;5.40;99.90;;;;;;5066256;28;20348;-72
2022/11/19 07:14:39;;;;;;;2.40;2.30;;;5.40;99.90;;;;;;5068801;28;20190;-72
2022/11/19 07:17:06;;;;;;;2.50;2.40;;;5.40;99.90;;;;;;5060820;28;20213;-72
2022/11/19 07:19:34;;;;;;;2.55;2.45;;;5.40;99.90;;;;;;5069586;28;20267;-73
2022/11/19 07:22:02;;;;;;;2.50;2.08;;;5.50;99.90;;;;;;5067851;28;20245;-72
2022/11/19 07:24:29;;;;;;;2.13;2.03;;;5.50;99.90;;;;;;5068853;28;20222;-73
2022/11/19 07:26:58;;;;;;;2.05;1.95;;;5.50;99.90;;;;;;5063328;28;20215;-72
2022/11/19 07:29:26;;;;;;;2.20;2.10;;;5.40;99.90;;;;;;5070168;28;20213;-73
2022/11/19 07:31:54;;;;;;;2.40;2.30;;;5.40;99.90;;;;;;5068939;28;20222;-74
2022/11/19 07:34:22;;;;;;;2.25;2.15;;;5.50;99.90;;;;;;5070976;28;20222;-72
2022/11/19 07:36:49;;;;;;;2.70;2.50;;;5.50;99.90;;;;;;5069715;28;20226;-74
2022/11/19 07:39:17;;;;;;;2.47;2.38;;;5.60;99.90;;;;;;5076410;28;20202;-74
2022/11/19 07:44:29;;;;;;;2.95;2.75;;;5.50;99.90;;;;;;5052201;28;20275;-74
2022/11/19 07:46:58;;;;;;;3.10;2.90;;;5.50;99.90;;;;;;5072647;28;20229;-74
2022/11/19 07:49:26;;;;;;;2.88;2.78;;;5.50;99.90;;;;;;5070784;28;20202;-74
2022/11/19 07:51:54;;;;;;;2.85;2.67;;;5.60;99.90;;;;;;5064283;28;20230;-74
2022/11/19 07:54:22;;;;;;;2.95;2.75;;;6.50;99.90;;;;;;5046811;28;20886;-75
2022/11/19 07:56:49;;;;;;;2.92;2.80;;;7.70;99.90;;;;;;5065672;28;20211;-76
2022/11/19 07:59:17;;;;;;;2.70;2.60;;;8.80;99.90;;;;;;5062680;28;20228;-75
2022/11/19 08:01:45;;;;;;;2.65;2.45;;;9.50;99.90;;;;;;5063640;28;20191;-74
2022/11/19 08:04:14;;;;;;;3.10;2.80;;;10.30;99.90;;;;;;5063461;28;20218;-74
2022/11/19 08:06:41;;;;;;;2.50;2.30;;;11.10;99.90;;;;;;5049131;28;20540;-75
2022/11/19 08:09:08;;;;;;;2.28;2.13;;;11.70;99.90;;;;;;5067754;28;20194;-77
2022/11/19 08:11:35;;;;;;;2.30;2.10;;;12.10;99.90;;;;;;5069370;28;20198;-78
2022/11/19 08:14:03;;;;;;;2.17;2.08;;;12.50;99.90;;;;;;5068463;28;20214;-76
2022/11/19 08:19:19;;;;;;;2.45;2.35;;;12.60;99.90;;;;;;5061967;28;20209;-75
2022/11/19 08:21:47;;;;;;;2.28;2.17;;;13.10;99.90;;;;;;5064659;28;20209;-75
2022/11/19 08:24:16;;;;;;;2.42;2.22;;;13.40;99.90;;;;;;5068874;28;20564;-75
2022/11/19 08:26:44;;;;;;;2.25;2.05;;;13.60;99.90;;;;;;5068377;28;20202;-75
2022/11/19 08:29:12;;;;;;;2.22;2.13;;;13.40;99.90;;;;;;5067579;28;20198;-74
2022/11/19 08:31:40;;;;;;;2.30;2.20;;;13.50;99.90;;;;;;5049294;28;20194;-74
2022/11/19 08:34:07;;;;;;;2.55;2.10;;;13.50;99.90;;;;;;5070743;28;20368;-76
2022/11/19 08:36:36;;;;;;;2.10;2.00;;;13.50;99.90;;;;;;5067779;28;20264;-74
2022/11/19 08:39:05;;;;;;;2.20;2.10;;;13.40;99.90;;;;;;5065217;28;20225;-74
2022/11/19 08:44:17;;;;;;;2.65;2.45;;;13.30;99.90;;;;;;5073758;28;20221;-76
2022/11/19 08:46:45;;;;;;;2.20;2.10;;;13.30;99.90;;;;;;5064205;28;20194;-78
2022/11/19 08:49:13;;;;;;;2.10;2.00;;;13.40;99.90;;;;;;5072106;28;20206;-76
2022/11/19 08:51:42;;;;;;;2.20;2.00;;;13.50;99.90;;;;;;5074296;28;20247;-78
2022/11/19 08:54:11;;;;;;;2.10;2.00;;;13.60;99.90;;;;;;5070654;28;20301;-79
2022/11/19 08:56:39;;;;;;;1.95;1.85;;;13.70;99.90;;;;;;5074799;28;20210;-78
2022/11/19 08:59:06;;;;;;;2.58;2.38;;;13.90;99.90;;;;;;5075041;28;20194;-75
2022/11/19 09:01:34;;;;;;;2.47;2.28;;;14.00;99.90;;;;;;5070495;28;20195;-77
2022/11/19 09:04:01;;;;;;;2.20;2.00;;;14.30;99.90;;;;;;5072167;28;20214;-75
2022/11/19 09:06:28;;;;;;;3.60;2.30;;;15.10;99.90;;;;;;5073362;28;20191;-75
2022/11/19 09:08:58;;;;;;;2.25;2.15;;;15.80;99.90;;;;;;5071675;28;20228;-75
2022/11/19 09:11:25;;;;;;;2.28;2.08;;;17.30;99.90;;;;;;5071574;28;20201;-77
2022/11/19 09:13:54;;;;;;;2.60;2.20;;;18.70;99.90;;;;;;5070201;28;20230;-75
2022/11/19 09:16:21;;;;;;;1.95;1.85;;;20.50;99.90;;;;;;5071490;28;20709;-76
2022/11/19 09:18:49;;;;;;;2.08;1.98;;;22.00;99.90;;;;;;5072511;28;20218;-73
2022/11/19 09:21:16;;;;;;;2.00;1.90;;;23.00;99.40;;;;;;5069569;28;20225;-76
2022/11/19 09:23:43;;;;;;;2.10;1.90;;;23.80;94.90;;;;;;5065144;28;20218;-79
2022/11/19 09:26:16;;;;;;;2.35;2.00;;;24.30;92.40;;;;;;5078174;28;20191;-77
2022/11/19 09:28:43;;;;;;;2.17;1.98;;;23.90;90.00;;;;;;5068790;28;20223;-77
2022/11/19 09:31:13;;;;;;;2.10;1.90;;;23.00;90.70;;;;;;5071220;28;20210;-78
2022/11/19 09:33:42;;;;;;;2.20;2.00;;;21.50;91.80;;;;;;5049066;28;20590;-77
2022/11/19 09:36:10;;;;;;;2.20;2.00;;;20.10;94.30;;;;;;5063086;28;20273;-74
2022/11/19 09:38:39;;;;;;;2.25;2.10;;;18.70;96.80;;;;;;5070460;28;20562;-75
2022/11/19 09:41:25;;;;;;;4.00;2.10;;;17.70;99.90;;;;;;5053116;28;20198;-75
2022/11/19 09:44:07;;;;;;;2.00;1.90;;;16.80;99.90;;;;;;5069045;28;20226;-77
2022/11/19 09:46:41;;;;;;;2.40;2.20;;;16.20;99.90;;;;;;5066433;28;20186;-74
2022/11/19 09:49:14;;;;;;;1.80;1.70;;;16.00;99.90;;;;;;5065156;28;20209;-75
2022/11/19 09:51:53;;;;;;;2.25;2.15;;;16.00;99.90;;;;;;5064279;28;20200;-75
2022/11/19 09:54:22;;;;;;;2.15;1.98;;;16.20;99.90;;;;;;5068771;28;20222;-72
2022/11/19 09:56:55;;;;;;;2.15;2.00;;;16.50;99.90;;;;;;5067242;28;20218;-77
2022/11/19 09:59:27;;;;;;;2.17;1.98;;;16.80;99.90;;;;;;5068067;28;20652;-78
2022/11/19 10:01:55;;;;;;;2.60;2.40;;;16.90;99.90;;;;;;5066570;28;20225;-76
2022/11/19 10:04:25;;;;;;;2.65;2.45;;;17.10;99.90;;;;;;5066924;28;20211;-74
2022/11/19 10:07:01;;;;;;;3.00;2.15;;;17.10;99.90;;;;;;5050058;28;20721;-74
2022/11/19 10:09:48;;;;;;;2.47;2.00;;;17.10;99.90;;;;;;5068979;28;20198;-74
2022/11/19 10:12:33;;;;;;;2.42;2.22;;;17.00;99.90;;;;;;5067331;28;20237;-73
2022/11/19 10:15:16;;;;;;;2.70;2.50;;;16.90;99.90;;;;;;5068128;28;20205;-75
2022/11/19 10:17:55;;;;;;;2.67;2.47;;;17.10;99.90;;;;;;5066070;28;20306;-74
2022/11/19 10:20:51;;;;;;;2.00;1.90;;;17.20;99.90;;;;;;5067273;28;20198;-74
2022/11/19 10:23:21;;;;;;;2.33;2.15;;;17.10;99.90;;;;;;5064642;28;20268;-73
2022/11/19 10:25:52;;;;;;;3.63;1.95;;;17.20;99.90;;;;;;5061541;28;20190;-74
2022/11/19 10:28:27;;;;;;;2.47;1.90;;;17.20;99.90;;;;;;5069261;28;20219;-75
2022/11/19 10:31:04;;;;;;;2.13;1.92;;;17.20;99.90;;;;;;5067716;28;20729;-74
2022/11/19 10:33:35;;;;;;;2.05;1.80;;;17.10;99.90;;;;;;5068958;28;20594;-73
2022/11/19 10:36:08;;;;;;;2.92;1.70;;;17.20;99.90;;;;;;5063169;28;20214;-74
2022/11/19 10:38:41;;;;;;;2.00;1.80;;;17.00;99.90;;;;;;5062874;28;20699;-75
2022/11/19 10:41:14;;;;;;;1.73;1.45;;;16.60;99.90;;;;;;5066934;28;20206;-77
2022/11/19 10:43:47;;;;;;;2.63;1.45;;;16.20;99.90;;;;;;5064448;28;20222;-76
2022/11/19 10:46:18;;;;;;;1.50;1.40;;;16.00;99.90;;;;;;5070223;28;20230;-76
2022/11/19 10:48:49;;;;;;;1.73;1.60;;;15.90;99.90;;;;;;5065054;28;20218;-75
2022/11/19 10:51:28;;;;;;;1.55;1.45;;;15.80;99.90;;;;;;5070015;28;20195;-77
2022/11/19 10:53:56;;;;;;;1.90;1.80;;;16.00;99.90;;;;;;5069843;28;20229;-75
2022/11/19 10:56:37;;;;;;;1.83;1.45;;;15.70;99.90;;;;;;5044827;28;20227;-74
2022/11/19 10:59:12;;;;;;;1.95;1.70;;;15.60;99.90;;;;;;5067344;28;20709;-73
2022/11/19 11:01:43;;;;;;;3.05;2.00;;;15.40;99.90;;;;;;5064514;28;20194;-74
2022/11/19 11:04:17;;;;;;;1.73;1.63;;;15.50;99.90;;;;;;5067795;28;20730;-76
2022/11/19 11:06:52;;;;;;;1.70;1.60;;;15.40;99.90;;;;;;5083105;28;20187;-74
2022/11/19 11:09:33;;;;;;;2.17;2.03;;;15.50;99.90;;;;;;5068340;28;20659;-73
2022/11/19 11:14:59;;;;;;;1.95;1.83;;;15.50;99.90;;;;;;5065333;28;20194;-74
2022/11/19 11:17:29;;;;;;;2.38;2.03;;;15.70;99.90;;;;;;5060864;28;20729;-75
2022/11/19 11:19:58;;;;;;;1.80;1.70;;;15.80;99.90;;;;;;5069411;28;20191;-74
2022/11/19 11:22:27;;;;;;;2.47;1.80;;;15.70;99.90;;;;;;5071649;28;20641;-74
2022/11/19 11:24:54;;;;;;;1.63;1.52;;;15.50;99.90;;;;;;5062041;28;20202;-74
2022/11/19 11:27:25;;;;;;;1.85;1.75;;;15.30;99.90;;;;;;5063511;28;20230;-76
2022/11/19 11:30:15;;;;;;;1.75;1.65;;;15.10;99.90;;;;;;5064224;28;20200;-78
2022/11/19 11:32:42;;;;;;;1.80;1.70;;;15.00;99.90;;;;;;5065765;28;20226;-75
2022/11/19 11:35:31;;;;;;;2.05;1.95;;;15.00;99.90;;;;;;5062944;28;20639;-73
2022/11/19 11:37:59;;;;;;;2.08;1.88;;;15.10;99.90;;;;;;5065812;28;20221;-75
2022/11/19 11:40:27;;;;;;;1.80;1.70;;;15.20;99.90;;;;;;5064686;28;20776;-75
2022/11/19 11:42:55;;;;;;;2.15;1.80;;;15.30;99.90;;;;;;5066827;28;20226;-75
2022/11/19 11:45:30;;;;;;;1.88;1.77;;;15.30;99.90;;;;;;5069088;28;20194;-74
2022/11/19 11:47:59;;;;;;;1.80;1.70;;;15.40;99.90;;;;;;5058253;28;20229;-73
2022/11/19 11:50:28;;;;;;;1.73;1.63;;;15.60;99.90;;;;;;5063931;28;20206;-75
2022/11/19 11:52:57;;;;;;;1.83;1.73;;;15.80;99.90;;;;;;5069023;28;20228;-74
2022/11/19 11:55:32;;;;;;;1.70;1.60;;;15.90;99.90;;;;;;5066108;28;20710;-75
2022/11/19 11:58:02;;;;;;;2.00;1.80;;;15.70;99.90;;;;;;5068848;28;20706;-75
2022/11/19 12:00:35;;;;;;;2.85;1.80;;;15.60;99.90;;;;;;5077724;28;20198;-73
2022/11/19 12:03:04;;;;;;;2.42;1.70;;;15.60;99.90;;;;;;5068815;28;20218;-74
2022/11/19 12:05:44;;;;;;;1.95;1.75;;;15.80;99.90;;;;;;5066900;28;20229;-75
2022/11/19 12:08:20;;;;;;;2.33;1.95;;;15.70;99.90;;;;;;5067695;28;20311;-75
2022/11/19 12:10:56;;;;;;;2.10;2.00;;;15.50;99.90;;;;;;5062981;28;20549;-75
2022/11/19 12:13:50;;;;;;;1.98;1.85;;;15.40;99.90;;;;;;5065454;28;20768;-74
2022/11/19 12:16:28;;;;;;;1.67;1.58;;;15.50;99.90;;;;;;5054353;28;20202;-75
2022/11/19 12:19:06;;;;;;;4.40;1.85;;;15.70;99.90;;;;;;5068134;28;20229;-75
2022/11/19 12:21:39;;;;;;;1.60;1.50;;;15.70;99.90;;;;;;5060983;28;20213;-75
2022/11/19 12:24:35;;;;;;;1.70;1.48;;;15.70;99.90;;;;;;5066727;28;20737;-74
2022/11/19 12:27:20;;;;;;;1.63;1.52;;;15.70;99.90;;;;;;5065374;28;20222;-74
2022/11/19 12:29:59;;;;;;;1.50;1.40;;;15.50;99.90;;;;;;5069866;28;20198;-75
2022/11/19 12:32:50;;;;;;;1.92;1.70;;;15.50;99.90;;;;;;5069514;28;20221;-74
2022/11/19 12:35:41;;;;;;;1.55;1.45;;;15.60;99.90;;;;;;5063924;28;20221;-75
2022/11/19 12:38:21;;;;;;;1.50;1.40;;;15.50;99.90;;;;;;5063445;28;20229;-75
2022/11/19 12:40:58;;;;;;;1.52;1.42;;;15.10;99.90;;;;;;5062805;28;20194;-75
2022/11/19 12:43:51;;;;;;;1.70;1.60;;;15.00;99.90;;;;;;5063140;28;20230;-76
2022/11/19 12:46:27;;;;;;;1.83;1.73;;;14.90;99.90;;;;;;5062149;28;20198;-74
2022/11/19 12:49:13;;;;;;;1.85;1.70;;;14.90;99.90;;;;;;5061807;28;20209;-73
2022/11/19 12:51:52;;;;;;;1.80;1.70;;;14.90;99.90;;;;;;5064666;28;20194;-75
2022/11/19 12:54:27;;;;;;;1.80;1.70;;;14.90;99.90;;;;;;5059727;28;20691;-74
2022/11/19 12:57:14;;;;;;;1.55;1.45;;;15.10;99.90;;;;;;5066322;28;20221;-74
2022/11/19 12:59:57;;;;;;;3.90;1.83;;;15.20;99.90;;;;;;5063243;28;20209;-74
2022/11/19 13:02:28;;;;;;;1.75;1.42;;;15.60;99.90;;;;;;5046407;28;20213;-75
2022/11/19 13:05:05;;;;;;;1.70;1.60;;;15.90;99.90;;;;;;5047916;28;20202;-74
2022/11/19 13:07:37;;;;;;;1.77;1.67;;;15.90;99.90;;;;;;5041720;28;20214;-73
2022/11/19 13:10:12;;;;;;;1.80;1.70;;;16.10;99.90;;;;;;5067344;28;20226;-73
2022/11/19 13:12:44;;;;;;;1.55;1.48;;;16.20;99.90;;;;;;5060250;28;20723;-73
2022/11/19 13:15:19;;;;;;;1.90;1.67;;;16.30;99.90;;;;;;5062924;28;20198;-72
2022/11/19 13:17:53;;;;;;;1.92;1.77;;;16.30;99.90;;;;;;5062742;28;20225;-72
2022/11/19 13:20:27;;;;;;;1.70;1.60;;;16.20;99.90;;;;;;5069697;28;20201;-73
2022/11/19 13:22:59;;;;;;;2.35;1.65;;;16.20;99.90;;;;;;5064731;28;21429;-77
2022/11/19 13:25:31;;;;;;;1.83;1.73;;;16.00;99.90;;;;;;5070891;28;20549;-77
2022/11/19 13:28:02;;;;;;;1.65;1.55;;;15.70;99.90;;;;;;5067551;28;20213;-79
2022/11/19 13:30:32;;;;;;;2.28;2.08;;;15.40;99.90;;;;;;5070261;28;20190;-79
2022/11/19 13:33:08;;;;;;;3.33;2.00;;;15.20;99.90;;;;;;5068703;28;20218;-78
2022/11/19 13:35:44;;;;;;;1.98;1.85;;;14.90;99.90;;;;;;5070991;28;20205;-78
2022/11/19 13:38:19;;;;;;;1.80;1.70;;;14.70;99.90;;;;;;5069687;28;20695;-72
2022/11/19 13:40:51;;;;;;;2.90;1.90;;;14.30;99.90;;;;;;5070693;28;20190;-76